Time;durP1;ratioP1;P1;durP2;ratioP2;P2;SDS_P1;SDS_P2;PMS_P1;PMS_P2;Temp;Humidity;BMP_temperature;BMP_pressure;BME280_temperature;BME280_humidity;BME280_pressure;Samples;Min_cycle;Max_cycle;Signal;HPM_P1;HPM_P2
2022/07/05 00:00:01;;;;;;;12.05;10.85;;;;;;;20.16;62.39;100641.36;1672027;86;21438;-58
2022/07/05 00:03:08;;;;;;;15.90;10.68;;;;;;;20.14;62.56;100644.04;1672007;86;21442;-57
2022/07/05 00:06:15;;;;;;;16.57;13.22;;;;;;;20.12;62.71;100635.08;1679088;85;21209;-57
2022/07/05 00:09:21;;;;;;;15.13;13.62;;;;;;;20.10;62.81;100638.09;1706166;83;21217;-58
2022/07/05 00:12:29;;;;;;;16.90;13.15;;;;;;;20.07;62.86;100643.25;1678792;85;21248;-58
2022/07/05 00:15:35;;;;;;;17.12;11.75;;;;;;;20.02;62.93;100638.39;1678124;83;21246;-58
2022/07/05 00:18:42;;;;;;;13.40;10.60;;;;;;;19.99;63.01;100631.05;1675372;85;21289;-58
2022/07/05 00:21:48;;;;;;;19.10;10.72;;;;;;;19.96;62.99;100635.69;1675604;85;21282;-59
2022/07/05 00:24:55;;;;;;;13.93;11.03;;;;;;;19.92;63.06;100632.51;1675548;85;21230;-59
2022/07/05 00:28:03;;;;;;;12.93;11.15;;;;;;;19.89;63.16;100635.75;1675553;85;21230;-59
2022/07/05 00:31:10;;;;;;;16.25;11.43;;;;;;;19.86;63.24;100634.83;1675563;85;21319;-59
2022/07/05 00:34:16;;;;;;;14.23;10.82;;;;;;;19.82;63.25;100631.34;1676470;85;21250;-59
2022/07/05 00:37:22;;;;;;;16.37;11.28;;;;;;;19.77;63.24;100628.41;1675551;85;21218;-59
2022/07/05 00:40:27;;;;;;;16.40;11.45;;;;;;;19.71;63.30;100637.66;1675355;85;21215;-59
2022/07/05 00:43:32;;;;;;;14.83;12.05;;;;;;;19.70;63.47;100635.94;1675424;85;21307;-59
2022/07/05 00:46:38;;;;;;;14.35;11.20;;;;;;;19.69;63.63;100638.42;1675443;85;21488;-58
2022/07/05 00:49:43;;;;;;;12.35;10.98;;;;;;;19.68;63.75;100640.91;1675615;85;21238;-58
2022/07/05 00:52:49;;;;;;;14.83;11.70;;;;;;;19.66;63.85;100638.88;1675477;85;21202;-59
2022/07/05 00:55:55;;;;;;;15.68;12.33;;;;;;;19.65;63.96;100636.63;1675595;85;21258;-58
2022/07/05 00:59:01;;;;;;;12.73;11.22;;;;;;;19.65;64.09;100640.80;1675361;85;21266;-59
2022/07/05 01:02:01;;;;;;;13.45;11.43;;;;;;;19.66;64.26;100644.44;1675713;85;21211;-59
2022/07/05 01:05:07;;;;;;;12.65;11.15;;;;;;;19.67;64.34;100650.30;1675385;85;21854;-60
2022/07/05 01:08:15;;;;;;;13.00;10.70;;;;;;;19.66;64.37;100650.00;1675589;85;21775;-59
2022/07/05 01:11:21;;;;;;;12.75;10.72;;;;;;;19.63;64.39;100642.12;1675611;85;21609;-59
2022/07/05 01:14:29;;;;;;;13.18;11.35;;;;;;;19.58;64.30;100644.73;1676076;85;21230;-59
2022/07/05 01:17:35;;;;;;;13.00;11.05;;;;;;;19.53;64.29;100645.94;1718832;83;21196;-60
2022/07/05 01:20:41;;;;;;;13.18;10.88;;;;;;;19.47;64.29;100642.16;1698875;83;21201;-59
2022/07/05 01:23:47;;;;;;;13.65;11.28;;;;;;;19.44;64.40;100645.37;1718850;83;21218;-59
2022/07/05 01:26:55;;;;;;;12.58;10.43;;;;;;;19.41;64.54;100635.28;1718943;83;21188;-59
2022/07/05 01:30:02;;;;;;;14.20;11.05;;;;;;;19.37;64.58;100640.43;1718851;83;21197;-59
2022/07/05 01:33:08;;;;;;;16.00;11.63;;;;;;;19.34;64.61;100651.98;1681721;85;21229;-59
2022/07/05 01:36:15;;;;;;;16.20;10.55;;;;;;;19.32;64.72;100647.19;1701100;84;21201;-59
2022/07/05 01:39:23;;;;;;;12.45;11.20;;;;;;;19.30;64.88;100648.80;1701057;84;21229;-60
2022/07/05 01:42:28;;;;;;;14.87;11.33;;;;;;;19.31;64.97;100653.83;1701058;84;21197;-61
2022/07/05 01:45:41;;;;;;;15.15;11.63;;;;;;;19.29;64.98;100652.67;1701173;84;21276;-60
2022/07/05 01:48:48;;;;;;;14.23;11.63;;;;;;;19.27;65.08;100652.53;1701112;84;21225;-58
2022/07/05 01:52:01;;;;;;;14.75;11.50;;;;;;;19.26;65.19;100655.87;1701042;84;21218;-58
2022/07/05 01:55:10;;;;;;;13.03;11.28;;;;;;;19.26;65.23;100650.84;1681609;85;21279;-58
2022/07/05 01:58:17;;;;;;;13.68;11.12;;;;;;;19.22;65.25;100654.60;1681831;85;21237;-58
2022/07/05 02:01:23;;;;;;;15.88;11.55;;;;;;;19.22;65.37;100660.69;1701149;84;21253;-58
2022/07/05 02:04:30;;;;;;;13.80;12.33;;;;;;;19.21;65.51;100664.02;1700934;84;21268;-58
2022/07/05 02:07:37;;;;;;;17.55;13.08;;;;;;;19.24;65.63;100662.17;1681736;85;21209;-58
2022/07/05 02:10:48;;;;;;;13.15;11.73;;;;;;;19.24;65.65;100666.87;1686050;84;21370;-59
2022/07/05 02:13:54;;;;;;;16.40;11.70;;;;;;;19.25;65.68;100671.33;1701099;84;21205;-58
2022/07/05 02:17:01;;;;;;;14.70;11.65;;;;;;;19.24;65.67;100667.73;1678569;83;21245;-59
2022/07/05 02:20:09;;;;;;;14.05;10.40;;;;;;;19.26;65.72;100671.14;1654893;87;21228;-60
2022/07/05 02:23:15;;;;;;;15.10;11.97;;;;;;;19.28;65.81;100673.16;1661744;86;21225;-59
2022/07/05 02:26:22;;;;;;;12.00;10.75;;;;;;;19.29;65.85;100670.72;1687192;83;21205;-60
2022/07/05 02:29:29;;;;;;;12.35;11.05;;;;;;;19.30;65.85;100677.95;1725078;82;21239;-59
2022/07/05 02:32:36;;;;;;;17.05;11.85;;;;;;;19.31;65.92;100678.26;1739305;82;21216;-59
2022/07/05 02:35:43;;;;;;;13.78;11.33;;;;;;;19.33;65.95;100677.50;1722680;82;21178;-58
2022/07/05 02:38:49;;;;;;;16.50;11.88;;;;;;;19.36;65.97;100689.25;1739085;82;21272;-58
2022/07/05 02:41:56;;;;;;;14.68;10.75;;;;;;;19.37;66.00;100685.38;1739045;82;21201;-59
2022/07/05 02:45:03;;;;;;;12.43;11.12;;;;;;;19.38;66.04;100684.33;1738959;82;21201;-58
2022/07/05 02:48:11;;;;;;;16.40;11.88;;;;;;;19.40;66.00;100686.31;1739086;82;21260;-59
2022/07/05 02:51:16;;;;;;;14.87;12.33;;;;;;;19.43;66.07;100686.72;1738427;82;21352;-58
2022/07/05 02:54:23;;;;;;;13.53;11.75;;;;;;;19.48;66.13;100691.59;1738711;82;21240;-58
2022/07/05 02:57:30;;;;;;;14.60;12.05;;;;;;;19.56;66.29;100692.17;1738756;82;21217;-59
2022/07/05 03:00:37;;;;;;;17.50;12.13;;;;;;;19.65;66.43;100695.50;1739120;82;21801;-58
2022/07/05 03:03:45;;;;;;;16.52;13.20;;;;;;;19.73;66.51;100690.52;1738735;82;21291;-58
2022/07/05 03:06:51;;;;;;;15.65;13.40;;;;;;;19.84;66.60;100693.08;1743046;82;21272;-58
2022/07/05 03:09:57;;;;;;;15.95;12.37;;;;;;;19.93;66.64;100687.00;1739444;82;21271;-58
2022/07/05 03:13:03;;;;;;;16.62;12.20;;;;;;;20.03;66.69;100697.59;1740218;82;21165;-59
2022/07/05 03:16:08;;;;;;;19.48;12.20;;;;;;;20.13;66.71;100696.53;1739273;82;21252;-59
2022/07/05 03:19:14;;;;;;;15.85;12.68;;;;;;;20.21;66.74;100688.78;1737496;82;21200;-59
2022/07/05 03:22:19;;;;;;;14.53;12.20;;;;;;;20.32;66.77;100689.94;1739147;82;21209;-55
2022/07/05 03:25:27;;;;;;;19.75;13.18;;;;;;;20.40;66.73;100694.66;1721854;82;21397;-55
2022/07/05 03:28:33;;;;;;;19.98;11.97;;;;;;;20.47;66.75;100694.02;1672688;84;21216;-56
2022/07/05 03:31:40;;;;;;;15.05;12.50;;;;;;;20.55;66.71;100702.05;1698110;84;21209;-56
2022/07/05 03:34:46;;;;;;;16.37;13.08;;;;;;;20.60;66.70;100699.95;1707550;83;21240;-55
2022/07/05 03:37:52;;;;;;;18.40;15.50;;;;;;;20.66;66.73;100697.09;1708772;83;21170;-55
2022/07/05 03:41:00;;;;;;;15.72;13.03;;;;;;;20.72;66.76;100702.28;1710849;83;21201;-57
2022/07/05 03:44:08;;;;;;;14.43;12.58;;;;;;;20.81;66.87;100696.69;1707022;83;21253;-55
2022/07/05 03:47:15;;;;;;;17.92;13.22;;;;;;;20.91;66.92;100700.31;1709352;83;21268;-54
2022/07/05 03:50:22;;;;;;;14.25;12.90;;;;;;;21.00;66.91;100694.74;1706568;83;21208;-55
2022/07/05 03:53:31;;;;;;;15.55;13.18;;;;;;;21.09;66.89;100694.17;1709215;83;21220;-54
2022/07/05 03:56:37;;;;;;;32.17;25.82;;;;;;;21.18;66.86;100694.70;1696734;84;21269;-56
2022/07/05 03:59:45;;;;;;;17.92;14.38;;;;;;;21.28;66.90;100697.77;1699709;84;21577;-57
2022/07/05 04:02:53;;;;;;;15.00;13.40;;;;;;;21.38;66.92;100696.09;1708042;83;21208;-57
2022/07/05 04:06:01;;;;;;;15.25;12.73;;;;;;;21.48;66.94;100695.51;1708480;83;21521;-57
2022/07/05 04:09:08;;;;;;;17.02;12.85;;;;;;;21.56;66.96;100703.52;1709340;83;21299;-57
2022/07/05 04:12:15;;;;;;;14.33;12.07;;;;;;;21.64;66.94;100697.60;1698929;84;21355;-56
2022/07/05 04:15:21;;;;;;;15.48;12.68;;;;;;;21.72;66.88;100695.86;1696868;84;21197;-56
2022/07/05 04:18:30;;;;;;;16.65;12.20;;;;;;;21.78;66.91;100690.20;1676204;84;21216;-56
2022/07/05 04:21:36;;;;;;;14.78;12.50;;;;;;;21.88;66.91;100690.43;1699708;84;21209;-56
2022/07/05 04:28:15;;;;;;;16.42;12.03;;;;;;;22.12;66.99;100689.34;1698201;84;21221;-54
2022/07/05 04:31:22;;;;;;;46.92;41.60;;;;;;;22.25;67.01;100691.59;1707276;83;21212;-56
2022/07/05 04:34:28;;;;;;;21.33;18.42;;;;;;;22.37;67.02;100698.85;1704006;83;21260;-56
2022/07/05 04:37:35;;;;;;;14.13;12.63;;;;;;;22.48;67.04;100689.61;1699945;84;21193;-55
2022/07/05 04:40:41;;;;;;;16.67;12.80;;;;;;;22.61;67.04;100690.73;1699834;84;21745;-55
2022/07/05 04:43:51;;;;;;;13.25;11.88;;;;;;;22.74;67.03;100696.62;1713398;82;21331;-55
2022/07/05 04:46:58;;;;;;;21.23;12.30;;;;;;;22.88;67.01;100689.08;1735748;82;21276;-56
2022/07/05 04:50:05;;;;;;;18.30;11.05;;;;;;;23.02;66.97;100693.84;1730395;82;21240;-57
2022/07/05 04:53:16;;;;;;;14.15;11.05;;;;;;;23.14;66.94;100694.08;1709100;82;21240;-56
2022/07/05 04:56:22;;;;;;;15.45;11.68;;;;;;;23.30;66.91;100696.64;1705519;84;21217;-56
2022/07/05 04:59:29;;;;;;;16.52;11.88;;;;;;;23.42;66.87;100696.87;1705146;84;21241;-56
2022/07/05 05:02:39;;;;;;;17.20;11.53;;;;;;;23.54;66.86;100696.80;1723854;82;21637;-55
2022/07/05 05:05:46;;;;;;;13.60;11.60;;;;;;;23.67;66.82;100695.08;1704274;84;21823;-54
2022/07/05 05:08:53;;;;;;;16.15;11.08;;;;;;;23.79;66.75;100694.44;1680458;84;21256;-53
2022/07/05 05:12:07;;;;;;;22.25;19.12;;;;;;;23.91;66.72;100692.95;1699918;84;21193;-54
2022/07/05 05:15:15;;;;;;;14.73;12.80;;;;;;;24.05;66.68;100699.38;1681254;85;21250;-54
2022/07/05 05:18:24;;;;;;;21.15;11.28;;;;;;;24.17;66.66;100689.46;1736114;82;21232;-53
2022/07/05 05:21:28;;;;;;;15.48;10.88;;;;;;;24.30;66.65;100692.77;1729054;82;21256;-53
2022/07/05 05:24:35;;;;;;;12.37;9.80;;;;;;;24.43;66.63;100689.59;1717203;82;21234;-52
2022/07/05 05:27:44;;;;;;;20.25;9.05;;;;;;;24.54;66.56;100695.63;1701199;82;21730;-52
2022/07/05 05:30:49;;;;;;;23.90;10.63;;;;;;;24.66;66.51;100695.48;1716541;82;21260;-52
2022/07/05 05:33:56;;;;;;;15.32;9.60;;;;;;;24.76;66.46;100690.91;1704736;83;21224;-52
2022/07/05 05:37:03;;;;;;;11.93;9.33;;;;;;;24.86;66.36;100692.41;1722647;82;21750;-52
2022/07/05 05:40:09;;;;;;;10.38;9.03;;;;;;;24.96;66.29;100700.95;1726203;82;21240;-52
2022/07/05 05:43:20;;;;;;;9.50;8.50;;;;;;;25.07;66.18;100694.07;1733557;82;21220;-53
2022/07/05 05:46:27;;;;;;;13.80;8.83;;;;;;;25.18;66.08;100695.88;1730416;82;21714;-53
2022/07/05 05:49:32;;;;;;;9.80;7.95;;;;;;;25.29;66.00;100697.67;1732154;82;21253;-53
2022/07/05 05:52:39;;;;;;;9.53;7.92;;;;;;;25.39;65.90;100694.98;1729084;82;21209;-52
2022/07/05 05:55:45;;;;;;;10.72;7.65;;;;;;;25.49;65.83;100695.09;1706622;84;21984;-53
2022/07/05 05:58:54;;;;;;;10.23;7.50;;;;;;;25.58;65.70;100697.70;1707720;83;21250;-51
2022/07/05 06:02:00;;;;;;;8.88;7.90;;;;;;;25.67;65.59;100698.92;1712764;82;22077;-55
2022/07/05 06:05:08;;;;;;;8.15;7.35;;;;;;;25.76;65.46;100695.91;1711457;82;21221;-54
2022/07/05 06:08:16;;;;;;;8.23;7.42;;;;;;;25.86;65.39;100693.20;1723557;82;21853;-53
2022/07/05 06:11:24;;;;;;;8.68;7.78;;;;;;;25.95;65.29;100691.58;1713399;83;21196;-53
2022/07/05 06:14:32;;;;;;;8.93;7.90;;;;;;;26.04;65.27;100689.98;1724567;82;21280;-53
2022/07/05 06:17:46;;;;;;;12.58;8.65;;;;;;;26.13;65.26;100689.79;1721667;82;21765;-53
2022/07/05 06:20:56;;;;;;;9.30;7.80;;;;;;;26.23;65.16;100686.48;1713015;82;21724;-54
2022/07/05 06:24:04;;;;;;;8.60;7.78;;;;;;;26.32;65.12;100686.83;1730911;82;21224;-53
2022/07/05 06:27:12;;;;;;;10.90;8.23;;;;;;;26.40;64.97;100680.12;1692478;83;21228;-53
2022/07/05 06:30:20;;;;;;;13.50;8.45;;;;;;;26.50;64.83;100686.35;1743311;81;21194;-55
2022/07/05 06:33:27;;;;;;;11.35;8.85;;;;;;;26.59;64.75;100683.88;1700459;83;21371;-53
2022/07/05 06:36:38;;;;;;;14.95;8.13;;;;;;;26.66;64.63;100675.52;1710132;82;21348;-52
2022/07/05 06:39:50;;;;;;;9.48;7.80;;;;;;;26.75;64.52;100671.05;1728611;81;21220;-53
2022/07/05 06:42:57;;;;;;;10.55;7.97;;;;;;;26.82;64.35;100675.86;1723740;82;21192;-53
2022/07/05 06:46:08;;;;;;;8.18;7.37;;;;;;;26.90;64.19;100678.14;1710083;81;21182;-52
2022/07/05 06:49:14;;;;;;;11.57;7.90;;;;;;;26.96;64.01;100673.37;1724781;82;21256;-52
2022/07/05 06:52:23;;;;;;;8.40;7.50;;;;;;;27.01;63.87;100668.63;1717404;82;21213;-53
2022/07/05 06:55:30;;;;;;;9.23;8.28;;;;;;;27.09;63.78;100672.30;1726783;82;21220;-54
2022/07/05 06:58:37;;;;;;;9.35;7.37;;;;;;;27.16;63.63;100675.67;1699850;82;21622;-54
2022/07/05 07:01:46;;;;;;;12.43;7.50;;;;;;;27.23;63.46;100672.05;1719520;82;21801;-53
2022/07/05 07:04:56;;;;;;;10.28;7.67;;;;;;;27.30;63.35;100676.89;1714810;83;21858;-53
2022/07/05 07:11:29;;;;;;;9.70;7.90;;;;;;;27.48;63.26;100677.74;1730731;82;21244;-54
2022/07/05 07:14:35;;;;;;;11.05;8.65;;;;;;;27.60;63.17;100670.45;1721705;82;21256;-55
2022/07/05 07:17:43;;;;;;;8.83;7.83;;;;;;;27.70;63.08;100667.06;1732556;81;21178;-53
2022/07/05 07:20:50;;;;;;;8.08;7.20;;;;;;;27.80;62.97;100674.66;1728090;82;22058;-53
2022/07/05 07:23:57;;;;;;;13.55;9.10;;;;;;;27.91;62.80;100676.95;1697300;83;21213;-53
2022/07/05 07:27:06;;;;;;;9.45;8.13;;;;;;;28.00;62.48;100676.66;1702654;83;21217;-52
2022/07/05 07:30:14;;;;;;;10.95;7.50;;;;;;;28.07;62.29;100678.64;1705016;84;21331;-53
2022/07/05 07:33:28;;;;;;;10.75;8.30;;;;;;;28.21;62.23;100676.92;1672358;83;21272;-53
2022/07/05 07:36:36;;;;;;;10.03;8.58;;;;;;;28.32;62.08;100684.22;1700268;84;21201;-52
2022/07/05 07:39:44;;;;;;;10.15;7.42;;;;;;;28.43;61.91;100685.30;1699247;82;21233;-52
2022/07/05 07:42:48;;;;;;;8.05;7.22;;;;;;;28.51;61.56;100672.66;1695782;84;21289;-54
2022/07/05 07:45:57;;;;;;;8.63;7.28;;;;;;;28.60;61.39;100674.59;1702780;84;21576;-54
2022/07/05 07:49:03;;;;;;;7.85;6.78;;;;;;;28.70;61.17;100674.53;1700148;83;21226;-53
2022/07/05 07:52:14;;;;;;;10.10;7.47;;;;;;;28.81;60.94;100673.35;1652304;86;21258;-54
2022/07/05 07:55:21;;;;;;;9.05;7.28;;;;;;;28.94;60.83;100666.24;1635425;87;22061;-53
2022/07/05 07:58:29;;;;;;;8.25;6.45;;;;;;;29.09;60.74;100660.57;1702422;83;21260;-53
2022/07/05 08:01:35;;;;;;;14.03;11.65;;;;;;;29.39;60.30;100663.75;1698044;84;21224;-53
2022/07/05 08:05:09;;;;;;;10.85;7.25;;;;;;;29.39;60.30;100663.75;1710383;83;21240;-53
2022/07/05 08:08:15;;;;;;;10.18;7.30;;;;;;;29.53;60.01;100664.22;1704914;83;21242;-53
2022/07/05 08:11:24;;;;;;;9.95;8.68;;;;;;;29.67;59.71;100656.80;1682750;82;21211;-53
2022/07/05 09:04:26;;;;;;;8.35;5.70;;;;;;;31.44;54.97;100652.22;1692670;83;21188;-59
2022/07/05 09:07:38;;;;;;;18.77;6.67;;;;;;;31.46;54.53;100654.17;1709615;83;21263;-57
2022/07/05 09:11:06;;;;;;;7.67;5.72;;;;;;;31.56;54.46;100659.66;1711255;84;21200;-57
2022/07/05 09:14:31;;;;;;;6.42;5.42;;;;;;;31.72;54.27;100650.62;1716382;80;21237;-58
2022/07/05 09:17:37;;;;;;;9.75;5.92;;;;;;;31.88;54.01;100653.48;1779839;80;21352;-57
2022/07/05 09:20:46;;;;;;;8.78;5.78;;;;;;;32.06;53.68;100653.73;1749398;82;21203;-58
2022/07/05 09:24:11;;;;;;;7.87;6.03;;;;;;;32.18;53.38;100655.48;1739212;82;21231;-58
2022/07/05 09:27:17;;;;;;;7.40;5.72;;;;;;;32.21;52.99;100658.53;1736477;82;21200;-59
2022/07/05 09:30:33;;;;;;;6.53;5.85;;;;;;;32.12;52.55;100656.73;1748372;82;21776;-58
2022/07/05 09:33:40;;;;;;;6.55;5.47;;;;;;;31.94;52.19;100655.63;1748125;82;21854;-58
2022/07/05 09:37:11;;;;;;;7.87;5.67;;;;;;;31.82;52.07;100648.19;1748310;82;21227;-59
2022/07/05 09:40:20;;;;;;;9.58;5.80;;;;;;;31.72;51.99;100645.52;1730944;81;21199;-59
2022/07/05 09:43:32;;;;;;;7.33;5.42;;;;;;;31.66;51.82;100653.27;1760393;81;21613;-59
2022/07/05 09:46:40;;;;;;;6.87;6.15;;;;;;;31.62;51.61;100652.19;1753347;81;21180;-59
2022/07/05 09:49:55;;;;;;;6.85;5.58;;;;;;;31.59;51.38;100657.05;1773874;81;21224;-57
2022/07/05 09:53:04;;;;;;;8.13;5.42;;;;;;;31.50;51.15;100648.16;1768978;80;21231;-60
2022/07/05 09:56:11;;;;;;;10.70;5.95;;;;;;;31.47;51.03;100647.36;1744561;81;21220;-59
2022/07/05 09:59:25;;;;;;;7.05;5.97;;;;;;;31.42;50.83;100643.18;1758374;81;21898;-60
2022/07/05 10:03:04;;;;;;;9.63;5.28;;;;;;;31.34;50.57;100641.05;1767416;81;21212;-59
2022/07/05 10:06:19;;;;;;;6.22;5.55;;;;;;;31.51;50.65;100637.08;1748072;81;21271;-59
2022/07/05 10:09:27;;;;;;;6.83;5.80;;;;;;;31.79;50.44;100628.98;1740199;81;21271;-58
2022/07/05 10:12:39;;;;;;;6.60;5.42;;;;;;;31.96;50.20;100630.12;1744303;81;21847;-58
2022/07/05 10:15:49;;;;;;;6.60;5.55;;;;;;;32.10;50.02;100620.21;1711431;81;21283;-59
2022/07/05 10:18:57;;;;;;;7.50;5.62;;;;;;;32.17;49.71;100630.58;1737820;80;21766;-59
2022/07/05 10:22:06;;;;;;;9.43;5.92;;;;;;;32.15;49.42;100633.44;1720749;80;21170;-57
2022/07/05 10:25:14;;;;;;;6.50;5.20;;;;;;;32.02;49.28;100626.59;1735174;82;21188;-59
2022/07/05 10:28:19;;;;;;;6.72;5.58;;;;;;;31.89;49.19;100627.39;1741148;82;21721;-58
2022/07/05 10:31:24;;;;;;;8.68;5.80;;;;;;;31.70;49.14;100630.25;1744166;82;21180;-59
2022/07/05 10:34:32;;;;;;;6.45;5.42;;;;;;;31.68;49.14;100634.55;1736714;80;21636;-57
2022/07/05 10:37:41;;;;;;;8.25;5.97;;;;;;;31.65;49.04;100627.50;1728680;82;21215;-58
2022/07/05 10:40:51;;;;;;;6.20;5.60;;;;;;;31.81;49.02;100623.26;1740137;82;21191;-57
2022/07/05 10:44:04;;;;;;;6.65;5.95;;;;;;;31.91;48.76;100625.10;1739815;82;21232;-58
2022/07/05 10:47:18;;;;;;;10.75;5.90;;;;;;;31.88;48.46;100618.64;1743503;82;21835;-53
2022/07/05 10:50:26;;;;;;;8.70;5.47;;;;;;;31.89;48.38;100624.56;1742014;82;21264;-58
2022/07/05 10:53:51;;;;;;;7.37;5.22;;;;;;;32.00;48.19;100621.81;1742557;82;21219;-59
2022/07/05 10:57:30;;;;;;;6.65;5.87;;;;;;;32.17;48.03;100614.98;1742368;82;21216;-58
2022/07/05 11:00:52;;;;;;;6.33;5.40;;;;;;;32.25;47.70;100622.77;1742132;82;21187;-60
2022/07/05 11:04:04;;;;;;;9.25;5.67;;;;;;;32.31;47.50;100620.09;1742221;82;21266;-56
2022/07/05 11:06:58;;;;;;;6.05;5.53;;;;;;;32.23;47.11;100615.15;1742003;82;21625;-59
2022/07/05 11:10:06;;;;;;;6.20;5.53;;;;;;;32.27;47.03;100619.62;1738123;82;21263;-56
2022/07/05 11:12:57;;;;;;;10.60;7.75;;;;;;;32.44;46.95;100614.20;1743410;81;21236;-57
2022/07/05 11:16:51;;;;;;;6.33;5.67;;;;;;;32.70;46.86;100609.66;1690380;80;21273;-57
2022/07/05 11:20:13;;;;;;;;;;;;;;;32.95;46.71;100606.31;1680763;85;21255;-59
2022/07/05 11:23:21;;;;;;;5.92;5.33;;;;;;;33.14;46.43;100609.23;1684066;84;20223;-58
2022/07/05 11:26:28;;;;;;;6.35;5.42;;;;;;;33.29;46.27;100617.41;1682627;85;21294;-56
2022/07/05 11:29:56;;;;;;;6.22;5.53;;;;;;;33.42;46.00;100607.76;1689072;83;21220;-58
2022/07/05 11:33:05;;;;;;;7.65;5.87;;;;;;;33.46;45.73;100612.47;1678142;84;21637;-57
2022/07/05 11:36:16;;;;;;;6.03;5.47;;;;;;;33.48;45.46;100603.63;1689330;83;21204;-58
2022/07/05 11:39:26;;;;;;;8.15;5.65;;;;;;;33.49;45.27;100603.91;1692768;84;21227;-58
2022/07/05 11:42:33;;;;;;;6.40;5.37;;;;;;;33.50;45.15;100601.31;1726427;82;21168;-60
2022/07/05 11:45:54;;;;;;;6.67;5.33;;;;;;;33.46;44.80;100600.30;1702001;84;21221;-58
2022/07/05 11:49:01;;;;;;;7.60;5.40;;;;;;;33.32;44.58;100598.31;1682978;84;22143;-56
2022/07/05 11:52:08;;;;;;;5.62;5.12;;;;;;;33.28;44.46;100591.58;1708159;84;21199;-57
2022/07/05 11:55:19;;;;;;;8.25;5.03;;;;;;;33.27;44.29;100582.81;1705570;84;21242;-54
2022/07/05 11:58:24;;;;;;;5.67;5.15;;;;;;;33.16;44.13;100587.62;1708772;84;21494;-56
2022/07/05 12:01:31;;;;;;;8.20;5.15;;;;;;;33.11;43.98;100581.50;1704476;84;21163;-55
2022/07/05 12:04:38;;;;;;;5.17;4.67;;;;;;;33.08;43.85;100572.20;1708676;84;21211;-55
2022/07/05 12:07:53;;;;;;;10.55;4.72;;;;;;;33.09;43.77;100573.88;1701569;84;21177;-55
2022/07/05 12:14:30;;;;;;;5.97;4.92;;;;;;;33.32;43.57;100571.34;1702620;84;21249;-55
2022/07/05 12:17:35;;;;;;;5.10;4.58;;;;;;;33.43;43.33;100569.70;1699506;82;21202;-55
2022/07/05 12:20:46;;;;;;;6.37;4.20;;;;;;;33.52;43.08;100569.18;1698182;83;21213;-55
2022/07/05 12:23:53;;;;;;;6.47;4.67;;;;;;;33.56;42.85;100568.20;1735994;82;21263;-55
2022/07/05 12:27:00;;;;;;;5.78;5.22;;;;;;;33.64;42.64;100562.32;1735633;82;21267;-55
2022/07/05 12:30:08;;;;;;;6.40;4.90;;;;;;;33.74;42.44;100572.00;1747733;80;21283;-56
2022/07/05 12:33:16;;;;;;;6.35;4.87;;;;;;;33.80;42.17;100562.17;1737456;82;21284;-54
2022/07/05 12:36:29;;;;;;;5.80;5.20;;;;;;;33.82;42.02;100561.27;1737800;81;21192;-57
2022/07/05 12:39:35;;;;;;;6.08;4.78;;;;;;;33.69;41.80;100555.94;1750208;81;21215;-56
2022/07/05 12:42:46;;;;;;;8.55;5.03;;;;;;;33.56;41.64;100560.25;1737266;82;21590;-55
2022/07/05 12:46:11;;;;;;;5.72;4.87;;;;;;;33.34;41.44;100560.51;1707678;83;21180;-55
2022/07/05 12:49:18;;;;;;;8.33;5.00;;;;;;;33.25;41.55;100551.66;1709365;83;21713;-54
2022/07/05 12:52:24;;;;;;;12.05;5.40;;;;;;;33.13;41.46;100555.64;1719447;81;21207;-54
2022/07/05 12:58:59;;;;;;;9.63;5.10;;;;;;;33.06;41.46;100551.00;1723373;82;21256;-55
2022/07/05 13:02:07;;;;;;;6.87;4.85;;;;;;;33.01;41.28;100551.12;1734773;80;21219;-55
2022/07/05 13:05:19;;;;;;;5.70;4.92;;;;;;;32.79;41.19;100550.44;1746093;80;21316;-56
2022/07/05 13:08:44;;;;;;;6.45;4.97;;;;;;;32.80;41.22;100550.72;1734878;81;21381;-55
2022/07/05 13:11:57;;;;;;;9.10;5.50;;;;;;;32.79;41.12;100559.55;1709851;83;21744;-56
2022/07/05 13:15:03;;;;;;;7.08;5.05;;;;;;;32.47;40.90;100550.62;1724227;82;21248;-55
2022/07/05 13:18:09;;;;;;;5.50;5.00;;;;;;;32.31;40.88;100551.22;1737467;81;21263;-55
2022/07/05 13:21:17;;;;;;;5.75;5.10;;;;;;;32.24;40.91;100553.05;1728642;80;21784;-54
2022/07/05 13:24:23;;;;;;;9.45;5.20;;;;;;;32.13;40.79;100557.84;1734780;81;21304;-55
2022/07/05 13:27:30;;;;;;;9.08;5.58;;;;;;;32.00;40.74;100550.42;1746341;82;21212;-55
2022/07/05 13:30:36;;;;;;;6.22;5.45;;;;;;;31.93;40.88;100551.99;1740773;81;21188;-54
2022/07/05 13:33:43;;;;;;;7.90;5.60;;;;;;;31.92;40.92;100550.32;1740784;82;21220;-54
2022/07/05 13:36:52;;;;;;;5.83;5.03;;;;;;;31.90;40.84;100547.77;1746567;80;21239;-54
2022/07/05 13:40:01;;;;;;;8.33;5.37;;;;;;;31.87;40.72;100555.48;1745456;81;21204;-55
2022/07/05 13:43:15;;;;;;;7.08;5.47;;;;;;;31.88;40.68;100547.84;1720833;82;21275;-55
2022/07/05 13:46:26;;;;;;;6.53;5.20;;;;;;;31.94;40.71;100548.00;1721679;81;21204;-56
2022/07/05 13:49:35;;;;;;;7.60;4.95;;;;;;;32.15;40.77;100552.11;1741689;82;21227;-56
2022/07/05 13:52:42;;;;;;;6.85;5.08;;;;;;;32.35;40.68;100538.92;1743253;81;21788;-55
2022/07/05 13:55:49;;;;;;;6.58;4.65;;;;;;;32.53;40.57;100542.27;1742853;82;21495;-54
2022/07/05 13:58:57;;;;;;;6.60;4.62;;;;;;;32.66;40.38;100542.83;1744419;82;21215;-53
2022/07/05 14:02:03;;;;;;;6.37;4.95;;;;;;;32.76;40.25;100542.58;1737631;81;21212;-55
2022/07/05 14:05:10;;;;;;;6.50;5.25;;;;;;;32.77;40.18;100534.34;1706671;82;21569;-55
2022/07/05 14:08:21;;;;;;;6.40;5.17;;;;;;;32.97;40.19;100539.56;1711788;83;21237;-55
2022/07/05 14:11:26;;;;;;;5.00;4.55;;;;;;;33.11;40.01;100523.33;1672367;84;21532;-55
2022/07/05 14:14:33;;;;;;;5.87;4.97;;;;;;;33.16;39.93;100528.03;1701684;84;21261;-56
2022/07/05 14:17:41;;;;;;;7.08;4.92;;;;;;;33.16;39.78;100525.19;1700135;83;21232;-54
2022/07/05 14:20:50;;;;;;;5.20;4.70;;;;;;;33.06;39.59;100531.95;1689998;84;21861;-54
2022/07/05 14:23:58;;;;;;;5.15;4.65;;;;;;;32.99;39.56;100525.91;1683959;85;21717;-55
2022/07/05 14:27:07;;;;;;;5.47;4.80;;;;;;;32.99;39.50;100528.74;1687333;83;21252;-55
2022/07/05 14:30:13;;;;;;;6.95;4.95;;;;;;;32.97;39.41;100530.20;1695437;83;21240;-55
2022/07/05 14:33:21;;;;;;;5.47;4.70;;;;;;;32.97;39.32;100528.22;1699159;84;21555;-54
2022/07/05 14:36:27;;;;;;;6.15;4.53;;;;;;;32.97;39.28;100531.05;1686857;85;21208;-54
2022/07/05 14:39:35;;;;;;;4.75;4.25;;;;;;;32.96;39.16;100523.71;1659425;85;21225;-55
2022/07/05 14:42:44;;;;;;;6.60;5.12;;;;;;;32.89;39.07;100516.20;1687297;85;21224;-54
2022/07/05 14:45:51;;;;;;;7.15;4.97;;;;;;;32.85;39.08;100510.05;1659460;86;21779;-54
2022/07/05 14:48:57;;;;;;;7.37;4.97;;;;;;;32.79;39.01;100512.15;1667099;83;21218;-55
2022/07/05 14:52:03;;;;;;;4.95;4.45;;;;;;;32.79;38.99;100514.98;1672704;86;21234;-56
2022/07/05 14:55:12;;;;;;;7.50;5.17;;;;;;;32.80;38.94;100512.43;1671964;86;21242;-55
2022/07/05 14:58:19;;;;;;;6.70;4.62;;;;;;;32.82;38.93;100514.38;1672398;86;21729;-55
2022/07/05 15:01:28;;;;;;;5.72;4.78;;;;;;;32.91;38.90;100510.21;1693881;84;21285;-57
2022/07/05 15:04:37;;;;;;;5.17;4.62;;;;;;;32.92;38.78;100508.47;1696524;84;21320;-54
2022/07/05 15:07:45;;;;;;;6.95;4.78;;;;;;;32.87;38.65;100512.81;1700343;84;21208;-56
2022/07/05 15:10:52;;;;;;;8.68;4.80;;;;;;;32.87;38.65;100511.39;1701070;84;21229;-55
2022/07/05 15:13:52;;;;;;;6.83;5.20;;;;;;;33.01;38.54;100507.98;1684685;84;21390;-55
2022/07/05 15:16:59;;;;;;;5.78;4.90;;;;;;;33.11;38.43;100513.39;1701113;83;21221;-55
2022/07/05 15:20:04;;;;;;;9.55;4.85;;;;;;;33.14;38.33;100507.67;1699773;83;21245;-56
2022/07/05 15:23:14;;;;;;;5.33;4.83;;;;;;;33.01;38.27;100517.07;1708990;82;21730;-56
2022/07/05 15:26:23;;;;;;;6.78;4.58;;;;;;;32.93;38.33;100511.59;1708940;83;21762;-56
2022/07/05 15:29:29;;;;;;;13.70;4.87;;;;;;;32.92;38.46;100516.98;1709779;84;21313;-56
2022/07/05 15:32:40;;;;;;;7.30;4.95;;;;;;;32.89;38.40;100514.79;1709803;84;21556;-55